sensor_id;sensor_type;location;lat;lon;timestamp;P1;durP1;ratioP1;P2;durP2;ratioP2
58528;SDS011;44322;52.968;5.816;2023-02-14T00:01:11;45.75;;;24.67;;
58528;SDS011;44322;52.968;5.816;2023-02-14T00:03:37;55.25;;;29.23;;
58528;SDS011;44322;52.968;5.816;2023-02-14T00:06:07;55.35;;;28.15;;
58528;SDS011;44322;52.968;5.816;2023-02-14T00:08:34;42.15;;;22.73;;
58528;SDS011;44322;52.968;5.816;2023-02-14T00:11:01;38.17;;;21.75;;
58528;SDS011;44322;52.968;5.816;2023-02-14T00:13:27;54.17;;;28.35;;
58528;SDS011;44322;52.968;5.816;2023-02-14T00:15:53;52.17;;;27.02;;
58528;SDS011;44322;52.968;5.816;2023-02-14T00:18:19;49.40;;;26.30;;
58528;SDS011;44322;52.968;5.816;2023-02-14T00:20:45;55.42;;;29.08;;
58528;SDS011;44322;52.968;5.816;2023-02-14T00:23:10;53.78;;;28.38;;
58528;SDS011;44322;52.968;5.816;2023-02-14T00:25:36;51.67;;;27.83;;
58528;SDS011;44322;52.968;5.816;2023-02-14T00:28:02;57.60;;;29.55;;
58528;SDS011;44322;52.968;5.816;2023-02-14T00:30:27;52.08;;;27.35;;
58528;SDS011;44322;52.968;5.816;2023-02-14T00:32:53;54.80;;;30.13;;
58528;SDS011;44322;52.968;5.816;2023-02-14T00:35:18;48.13;;;25.20;;
58528;SDS011;44322;52.968;5.816;2023-02-14T00:37:44;51.25;;;26.70;;
58528;SDS011;44322;52.968;5.816;2023-02-14T00:40:11;52.10;;;27.42;;
58528;SDS011;44322;52.968;5.816;2023-02-14T00:42:38;53.88;;;27.15;;
58528;SDS011;44322;52.968;5.816;2023-02-14T00:45:03;40.85;;;22.20;;
58528;SDS011;44322;52.968;5.816;2023-02-14T00:47:29;54.10;;;29.75;;
58528;SDS011;44322;52.968;5.816;2023-02-14T00:49:55;48.28;;;25.58;;
58528;SDS011;44322;52.968;5.816;2023-02-14T00:52:27;51.83;;;27.83;;
58528;SDS011;44322;52.968;5.816;2023-02-14T00:54:56;55.35;;;28.42;;
58528;SDS011;44322;52.968;5.816;2023-02-14T00:57:23;43.40;;;23.98;;
58528;SDS011;44322;52.968;5.816;2023-02-14T00:59:48;51.75;;;26.85;;
58528;SDS011;44322;52.968;5.816;2023-02-14T01:02:14;52.42;;;27.77;;
58528;SDS011;44322;52.968;5.816;2023-02-14T01:04:39;52.10;;;28.23;;
58528;SDS011;44322;52.968;5.816;2023-02-14T01:07:05;50.63;;;27.08;;
58528;SDS011;44322;52.968;5.816;2023-02-14T01:09:30;54.10;;;28.02;;
58528;SDS011;44322;52.968;5.816;2023-02-14T01:11:59;57.10;;;28.88;;
58528;SDS011;44322;52.968;5.816;2023-02-14T01:14:25;54.65;;;28.50;;
58528;SDS011;44322;52.968;5.816;2023-02-14T01:16:51;50.65;;;27.40;;
58528;SDS011;44322;52.968;5.816;2023-02-14T01:19:16;54.33;;;28.05;;
58528;SDS011;44322;52.968;5.816;2023-02-14T01:21:42;49.30;;;25.58;;
58528;SDS011;44322;52.968;5.816;2023-02-14T01:24:08;55.30;;;28.13;;
58528;SDS011;44322;52.968;5.816;2023-02-14T01:26:41;49.95;;;25.90;;
58528;SDS011;44322;52.968;5.816;2023-02-14T01:29:07;53.72;;;27.73;;
58528;SDS011;44322;52.968;5.816;2023-02-14T01:31:33;54.45;;;26.88;;
58528;SDS011;44322;52.968;5.816;2023-02-14T01:33:59;48.78;;;25.75;;
58528;SDS011;44322;52.968;5.816;2023-02-14T01:36:29;52.35;;;26.85;;
58528;SDS011;44322;52.968;5.816;2023-02-14T01:39:01;50.17;;;27.10;;
58528;SDS011;44322;52.968;5.816;2023-02-14T01:41:30;52.33;;;27.95;;
58528;SDS011;44322;52.968;5.816;2023-02-14T01:43:58;56.55;;;29.00;;
58528;SDS011;44322;52.968;5.816;2023-02-14T01:46:26;51.13;;;28.58;;
58528;SDS011;44322;52.968;5.816;2023-02-14T01:48:54;55.10;;;27.67;;
58528;SDS011;44322;52.968;5.816;2023-02-14T01:51:44;53.42;;;27.80;;
58528;SDS011;44322;52.968;5.816;2023-02-14T01:54:18;54.15;;;27.85;;
58528;SDS011;44322;52.968;5.816;2023-02-14T01:56:47;62.70;;;30.63;;
58528;SDS011;44322;52.968;5.816;2023-02-14T01:59:16;58.90;;;29.13;;
58528;SDS011;44322;52.968;5.816;2023-02-14T02:01:45;60.83;;;29.52;;
58528;SDS011;44322;52.968;5.816;2023-02-14T02:04:12;63.30;;;31.08;;
58528;SDS011;44322;52.968;5.816;2023-02-14T02:06:41;59.20;;;29.90;;
58528;SDS011;44322;52.968;5.816;2023-02-14T02:11:42;58.80;;;29.30;;
58528;SDS011;44322;52.968;5.816;2023-02-14T02:14:11;57.42;;;30.00;;
58528;SDS011;44322;52.968;5.816;2023-02-14T02:19:34;62.65;;;30.67;;
58528;SDS011;44322;52.968;5.816;2023-02-14T02:27:54;61.80;;;30.33;;
58528;SDS011;44322;52.968;5.816;2023-02-14T02:30:33;61.75;;;31.83;;
58528;SDS011;44322;52.968;5.816;2023-02-14T02:36:22;59.58;;;29.67;;
58528;SDS011;44322;52.968;5.816;2023-02-14T02:42:04;57.08;;;30.27;;
58528;SDS011;44322;52.968;5.816;2023-02-14T02:50:25;62.80;;;30.27;;
58528;SDS011;44322;52.968;5.816;2023-02-14T02:55:48;60.08;;;30.10;;
58528;SDS011;44322;52.968;5.816;2023-02-14T03:01:13;64.43;;;31.60;;
58528;SDS011;44322;52.968;5.816;2023-02-14T03:03:42;63.85;;;30.52;;
58528;SDS011;44322;52.968;5.816;2023-02-14T03:06:29;58.85;;;28.98;;
58528;SDS011;44322;52.968;5.816;2023-02-14T03:08:55;58.42;;;29.00;;
58528;SDS011;44322;52.968;5.816;2023-02-14T03:11:21;55.42;;;29.08;;
58528;SDS011;44322;52.968;5.816;2023-02-14T03:16:30;60.70;;;30.10;;
58528;SDS011;44322;52.968;5.816;2023-02-14T03:19:44;57.65;;;30.25;;
58528;SDS011;44322;52.968;5.816;2023-02-14T03:24:54;57.83;;;29.67;;
58528;SDS011;44322;52.968;5.816;2023-02-14T03:27:26;55.03;;;30.48;;
58528;SDS011;44322;52.968;5.816;2023-02-14T03:35:08;57.17;;;28.50;;
58528;SDS011;44322;52.968;5.816;2023-02-14T03:37:48;59.38;;;29.55;;
58528;SDS011;44322;52.968;5.816;2023-02-14T03:40:47;49.03;;;26.50;;
58528;SDS011;44322;52.968;5.816;2023-02-14T03:43:40;50.97;;;27.52;;
58528;SDS011;44322;52.968;5.816;2023-02-14T03:49:14;51.90;;;28.13;;
58528;SDS011;44322;52.968;5.816;2023-02-14T03:51:43;51.65;;;27.85;;
58528;SDS011;44322;52.968;5.816;2023-02-14T03:54:10;51.80;;;28.45;;
58528;SDS011;44322;52.968;5.816;2023-02-14T03:56:47;44.47;;;25.52;;
58528;SDS011;44322;52.968;5.816;2023-02-14T03:59:19;50.88;;;27.88;;
58528;SDS011;44322;52.968;5.816;2023-02-14T04:04:31;51.17;;;26.95;;
58528;SDS011;44322;52.968;5.816;2023-02-14T04:07:07;58.72;;;29.45;;
58528;SDS011;44322;52.968;5.816;2023-02-14T04:09:36;51.63;;;28.55;;
58528;SDS011;44322;52.968;5.816;2023-02-14T04:12:01;54.67;;;28.02;;
58528;SDS011;44322;52.968;5.816;2023-02-14T04:14:27;50.10;;;27.20;;
58528;SDS011;44322;52.968;5.816;2023-02-14T04:16:54;49.20;;;27.17;;
58528;SDS011;44322;52.968;5.816;2023-02-14T04:19:39;54.72;;;28.23;;
58528;SDS011;44322;52.968;5.816;2023-02-14T04:22:04;54.03;;;28.42;;
58528;SDS011;44322;52.968;5.816;2023-02-14T04:24:30;51.70;;;28.23;;
58528;SDS011;44322;52.968;5.816;2023-02-14T04:26:55;50.70;;;27.23;;
58528;SDS011;44322;52.968;5.816;2023-02-14T04:29:37;50.40;;;27.38;;
58528;SDS011;44322;52.968;5.816;2023-02-14T04:32:04;53.90;;;27.98;;
58528;SDS011;44322;52.968;5.816;2023-02-14T04:34:31;52.25;;;27.67;;
58528;SDS011;44322;52.968;5.816;2023-02-14T04:36:57;49.40;;;26.75;;
58528;SDS011;44322;52.968;5.816;2023-02-14T04:39:22;50.83;;;27.35;;
58528;SDS011;44322;52.968;5.816;2023-02-14T04:41:48;49.00;;;27.50;;
58528;SDS011;44322;52.968;5.816;2023-02-14T04:44:13;50.33;;;28.42;;
58528;SDS011;44322;52.968;5.816;2023-02-14T04:46:39;52.42;;;27.98;;
58528;SDS011;44322;52.968;5.816;2023-02-14T04:49:05;48.78;;;26.50;;
58528;SDS011;44322;52.968;5.816;2023-02-14T04:51:30;51.10;;;25.92;;
58528;SDS011;44322;52.968;5.816;2023-02-14T04:53:56;47.88;;;26.70;;
58528;SDS011;44322;52.968;5.816;2023-02-14T04:56:21;48.80;;;26.10;;
58528;SDS011;44322;52.968;5.816;2023-02-14T04:58:47;44.95;;;24.65;;
58528;SDS011;44322;52.968;5.816;2023-02-14T05:01:12;39.13;;;21.88;;
58528;SDS011;44322;52.968;5.816;2023-02-14T05:03:38;52.17;;;24.45;;
58528;SDS011;44322;52.968;5.816;2023-02-14T05:06:04;43.83;;;22.05;;
58528;SDS011;44322;52.968;5.816;2023-02-14T05:08:30;42.65;;;23.67;;
58528;SDS011;44322;52.968;5.816;2023-02-14T05:10:55;44.95;;;24.55;;
58528;SDS011;44322;52.968;5.816;2023-02-14T05:13:21;54.22;;;25.05;;
58528;SDS011;44322;52.968;5.816;2023-02-14T05:15:47;43.45;;;24.85;;
58528;SDS011;44322;52.968;5.816;2023-02-14T05:18:12;43.47;;;23.92;;
58528;SDS011;44322;52.968;5.816;2023-02-14T05:20:38;43.40;;;23.15;;
58528;SDS011;44322;52.968;5.816;2023-02-14T05:23:03;45.15;;;24.98;;
58528;SDS011;44322;52.968;5.816;2023-02-14T05:25:29;39.78;;;21.58;;
58528;SDS011;44322;52.968;5.816;2023-02-14T05:27:55;45.63;;;23.45;;
58528;SDS011;44322;52.968;5.816;2023-02-14T05:30:21;47.30;;;23.45;;
58528;SDS011;44322;52.968;5.816;2023-02-14T05:32:52;45.65;;;24.63;;
58528;SDS011;44322;52.968;5.816;2023-02-14T05:35:18;40.93;;;22.43;;
58528;SDS011;44322;52.968;5.816;2023-02-14T05:37:43;53.55;;;26.60;;
58528;SDS011;44322;52.968;5.816;2023-02-14T05:40:09;48.47;;;26.55;;
58528;SDS011;44322;52.968;5.816;2023-02-14T05:42:39;46.15;;;25.58;;
58528;SDS011;44322;52.968;5.816;2023-02-14T05:45:05;48.17;;;26.25;;
58528;SDS011;44322;52.968;5.816;2023-02-14T05:47:31;47.55;;;25.67;;
58528;SDS011;44322;52.968;5.816;2023-02-14T05:49:57;44.70;;;25.05;;
58528;SDS011;44322;52.968;5.816;2023-02-14T05:52:22;45.17;;;24.85;;
58528;SDS011;44322;52.968;5.816;2023-02-14T05:54:48;44.88;;;25.10;;
58528;SDS011;44322;52.968;5.816;2023-02-14T05:57:14;48.58;;;23.73;;
58528;SDS011;44322;52.968;5.816;2023-02-14T06:02:38;38.42;;;19.75;;
58528;SDS011;44322;52.968;5.816;2023-02-14T06:05:04;40.67;;;22.50;;
58528;SDS011;44322;52.968;5.816;2023-02-14T06:07:29;70.32;;;24.08;;
58528;SDS011;44322;52.968;5.816;2023-02-14T06:09:55;61.70;;;24.15;;
58528;SDS011;44322;52.968;5.816;2023-02-14T06:12:21;45.20;;;21.75;;
58528;SDS011;44322;52.968;5.816;2023-02-14T06:14:46;55.80;;;23.98;;
58528;SDS011;44322;52.968;5.816;2023-02-14T06:17:12;64.57;;;24.63;;
58528;SDS011;44322;52.968;5.816;2023-02-14T06:19:37;62.95;;;22.80;;
58528;SDS011;44322;52.968;5.816;2023-02-14T06:22:03;40.72;;;23.15;;
58528;SDS011;44322;52.968;5.816;2023-02-14T06:24:29;47.30;;;23.67;;
58528;SDS011;44322;52.968;5.816;2023-02-14T06:26:54;55.60;;;24.88;;
58528;SDS011;44322;52.968;5.816;2023-02-14T06:29:20;48.80;;;25.27;;
58528;SDS011;44322;52.968;5.816;2023-02-14T06:31:46;52.55;;;24.90;;
58528;SDS011;44322;52.968;5.816;2023-02-14T06:34:11;52.63;;;25.58;;
58528;SDS011;44322;52.968;5.816;2023-02-14T06:36:37;49.00;;;25.15;;
58528;SDS011;44322;52.968;5.816;2023-02-14T06:39:02;43.25;;;25.33;;
58528;SDS011;44322;52.968;5.816;2023-02-14T06:41:28;42.15;;;24.73;;
58528;SDS011;44322;52.968;5.816;2023-02-14T06:43:54;40.72;;;23.02;;
58528;SDS011;44322;52.968;5.816;2023-02-14T06:46:20;43.58;;;25.15;;
58528;SDS011;44322;52.968;5.816;2023-02-14T06:48:46;45.53;;;26.45;;
58528;SDS011;44322;52.968;5.816;2023-02-14T06:51:11;43.30;;;25.27;;
58528;SDS011;44322;52.968;5.816;2023-02-14T06:53:37;47.13;;;25.63;;
58528;SDS011;44322;52.968;5.816;2023-02-14T06:56:03;45.85;;;26.25;;
58528;SDS011;44322;52.968;5.816;2023-02-14T06:58:29;43.25;;;23.88;;
58528;SDS011;44322;52.968;5.816;2023-02-14T07:00:55;43.08;;;22.92;;
58528;SDS011;44322;52.968;5.816;2023-02-14T07:03:22;58.67;;;26.42;;
58528;SDS011;44322;52.968;5.816;2023-02-14T07:05:48;43.90;;;26.48;;
58528;SDS011;44322;52.968;5.816;2023-02-14T07:08:14;50.75;;;25.83;;
58528;SDS011;44322;52.968;5.816;2023-02-14T07:10:40;43.38;;;26.20;;
58528;SDS011;44322;52.968;5.816;2023-02-14T07:13:05;42.30;;;24.42;;
58528;SDS011;44322;52.968;5.816;2023-02-14T07:15:31;47.05;;;25.60;;
58528;SDS011;44322;52.968;5.816;2023-02-14T07:17:57;42.05;;;24.85;;
58528;SDS011;44322;52.968;5.816;2023-02-14T07:20:23;43.95;;;25.10;;
58528;SDS011;44322;52.968;5.816;2023-02-14T07:22:49;42.58;;;24.08;;
58528;SDS011;44322;52.968;5.816;2023-02-14T07:25:15;42.58;;;26.27;;
58528;SDS011;44322;52.968;5.816;2023-02-14T07:27:41;46.85;;;26.00;;
58528;SDS011;44322;52.968;5.816;2023-02-14T07:30:07;56.97;;;25.85;;
58528;SDS011;44322;52.968;5.816;2023-02-14T07:32:33;62.53;;;26.35;;
58528;SDS011;44322;52.968;5.816;2023-02-14T07:34:58;76.82;;;25.95;;
58528;SDS011;44322;52.968;5.816;2023-02-14T07:37:24;73.93;;;24.95;;
58528;SDS011;44322;52.968;5.816;2023-02-14T07:39:50;97.30;;;25.45;;
58528;SDS011;44322;52.968;5.816;2023-02-14T07:42:15;62.80;;;25.02;;
58528;SDS011;44322;52.968;5.816;2023-02-14T07:44:43;94.68;;;25.92;;
58528;SDS011;44322;52.968;5.816;2023-02-14T07:47:10;72.20;;;25.80;;
58528;SDS011;44322;52.968;5.816;2023-02-14T07:49:36;66.95;;;26.02;;
58528;SDS011;44322;52.968;5.816;2023-02-14T07:52:05;83.97;;;26.45;;
58528;SDS011;44322;52.968;5.816;2023-02-14T07:54:31;71.20;;;25.85;;
58528;SDS011;44322;52.968;5.816;2023-02-14T07:56:57;65.80;;;26.48;;
58528;SDS011;44322;52.968;5.816;2023-02-14T07:59:22;65.93;;;25.92;;
58528;SDS011;44322;52.968;5.816;2023-02-14T08:01:48;52.90;;;24.77;;
58528;SDS011;44322;52.968;5.816;2023-02-14T08:04:14;61.90;;;25.38;;
58528;SDS011;44322;52.968;5.816;2023-02-14T08:06:40;37.67;;;22.58;;
58528;SDS011;44322;52.968;5.816;2023-02-14T08:09:06;50.70;;;24.33;;
58528;SDS011;44322;52.968;5.816;2023-02-14T08:11:32;47.20;;;23.90;;
58528;SDS011;44322;52.968;5.816;2023-02-14T08:14:16;43.08;;;24.20;;
58528;SDS011;44322;52.968;5.816;2023-02-14T08:16:42;41.33;;;24.48;;
58528;SDS011;44322;52.968;5.816;2023-02-14T08:19:07;41.67;;;25.10;;
58528;SDS011;44322;52.968;5.816;2023-02-14T08:21:33;40.60;;;23.83;;
58528;SDS011;44322;52.968;5.816;2023-02-14T08:23:58;37.50;;;24.63;;
58528;SDS011;44322;52.968;5.816;2023-02-14T08:26:24;38.90;;;24.95;;
58528;SDS011;44322;52.968;5.816;2023-02-14T08:28:50;46.80;;;25.90;;
58528;SDS011;44322;52.968;5.816;2023-02-14T08:31:27;52.10;;;26.25;;
58528;SDS011;44322;52.968;5.816;2023-02-14T08:33:54;46.20;;;23.38;;
58528;SDS011;44322;52.968;5.816;2023-02-14T08:36:20;46.85;;;26.48;;
58528;SDS011;44322;52.968;5.816;2023-02-14T08:38:45;47.58;;;26.70;;
58528;SDS011;44322;52.968;5.816;2023-02-14T08:43:43;50.08;;;24.58;;
58528;SDS011;44322;52.968;5.816;2023-02-14T08:46:09;45.92;;;25.15;;
58528;SDS011;44322;52.968;5.816;2023-02-14T08:48:37;45.75;;;24.90;;
58528;SDS011;44322;52.968;5.816;2023-02-14T08:51:04;40.72;;;24.63;;
58528;SDS011;44322;52.968;5.816;2023-02-14T08:53:33;42.42;;;26.60;;
58528;SDS011;44322;52.968;5.816;2023-02-14T08:56:02;45.00;;;26.23;;
58528;SDS011;44322;52.968;5.816;2023-02-14T08:58:29;46.10;;;27.48;;
58528;SDS011;44322;52.968;5.816;2023-02-14T09:00:55;44.50;;;28.08;;
58528;SDS011;44322;52.968;5.816;2023-02-14T09:03:20;44.55;;;27.80;;
58528;SDS011;44322;52.968;5.816;2023-02-14T09:05:46;48.20;;;29.60;;
58528;SDS011;44322;52.968;5.816;2023-02-14T09:08:12;52.10;;;32.45;;
58528;SDS011;44322;52.968;5.816;2023-02-14T09:10:37;53.05;;;31.80;;
58528;SDS011;44322;52.968;5.816;2023-02-14T09:13:03;59.05;;;34.75;;
58528;SDS011;44322;52.968;5.816;2023-02-14T09:15:32;60.53;;;35.00;;
58528;SDS011;44322;52.968;5.816;2023-02-14T09:17:58;61.67;;;35.53;;
58528;SDS011;44322;52.968;5.816;2023-02-14T09:20:23;63.30;;;35.55;;
58528;SDS011;44322;52.968;5.816;2023-02-14T09:22:49;71.05;;;37.25;;
58528;SDS011;44322;52.968;5.816;2023-02-14T09:25:15;64.63;;;38.58;;
58528;SDS011;44322;52.968;5.816;2023-02-14T09:27:41;78.80;;;40.67;;
58528;SDS011;44322;52.968;5.816;2023-02-14T09:30:07;75.97;;;41.95;;
58528;SDS011;44322;52.968;5.816;2023-02-14T09:32:34;83.88;;;44.15;;
58528;SDS011;44322;52.968;5.816;2023-02-14T09:35:00;80.35;;;44.88;;
58528;SDS011;44322;52.968;5.816;2023-02-14T09:37:26;90.57;;;46.85;;
58528;SDS011;44322;52.968;5.816;2023-02-14T09:40:14;80.18;;;45.42;;
58528;SDS011;44322;52.968;5.816;2023-02-14T09:42:47;87.35;;;47.22;;
58528;SDS011;44322;52.968;5.816;2023-02-14T09:45:17;78.20;;;43.38;;
58528;SDS011;44322;52.968;5.816;2023-02-14T09:48:09;71.70;;;40.05;;
58528;SDS011;44322;52.968;5.816;2023-02-14T09:50:49;66.22;;;38.20;;
58528;SDS011;44322;52.968;5.816;2023-02-14T09:53:25;66.07;;;37.60;;
58528;SDS011;44322;52.968;5.816;2023-02-14T09:58:32;58.63;;;34.60;;
58528;SDS011;44322;52.968;5.816;2023-02-14T10:01:05;54.55;;;33.08;;
58528;SDS011;44322;52.968;5.816;2023-02-14T10:03:50;52.70;;;32.90;;
58528;SDS011;44322;52.968;5.816;2023-02-14T10:09:17;51.42;;;31.25;;
58528;SDS011;44322;52.968;5.816;2023-02-14T10:12:03;47.00;;;30.20;;
58528;SDS011;44322;52.968;5.816;2023-02-14T10:14:29;47.60;;;30.77;;
58528;SDS011;44322;52.968;5.816;2023-02-14T10:17:14;49.58;;;31.35;;
58528;SDS011;44322;52.968;5.816;2023-02-14T10:19:45;49.20;;;30.65;;
58528;SDS011;44322;52.968;5.816;2023-02-14T10:22:14;48.42;;;28.98;;
58528;SDS011;44322;52.968;5.816;2023-02-14T10:29:53;49.40;;;30.05;;
58528;SDS011;44322;52.968;5.816;2023-02-14T10:32:55;47.08;;;30.27;;
58528;SDS011;44322;52.968;5.816;2023-02-14T10:40:28;52.88;;;32.95;;
58528;SDS011;44322;52.968;5.816;2023-02-14T10:51:47;53.85;;;32.38;;
58528;SDS011;44322;52.968;5.816;2023-02-14T10:54:27;50.63;;;31.52;;
58528;SDS011;44322;52.968;5.816;2023-02-14T10:57:01;52.28;;;31.45;;
58528;SDS011;44322;52.968;5.816;2023-02-14T10:59:53;50.45;;;31.90;;
58528;SDS011;44322;52.968;5.816;2023-02-14T11:02:31;51.05;;;33.55;;
58528;SDS011;44322;52.968;5.816;2023-02-14T11:05:16;54.50;;;32.50;;
58528;SDS011;44322;52.968;5.816;2023-02-14T11:07:51;56.65;;;34.75;;
58528;SDS011;44322;52.968;5.816;2023-02-14T11:10:17;56.75;;;34.58;;
58528;SDS011;44322;52.968;5.816;2023-02-14T11:12:44;54.45;;;34.97;;
58528;SDS011;44322;52.968;5.816;2023-02-14T11:17:39;60.50;;;37.45;;
58528;SDS011;44322;52.968;5.816;2023-02-14T11:22:44;54.08;;;33.55;;
58528;SDS011;44322;52.968;5.816;2023-02-14T11:25:26;56.15;;;34.05;;
58528;SDS011;44322;52.968;5.816;2023-02-14T11:28:01;59.83;;;36.20;;
58528;SDS011;44322;52.968;5.816;2023-02-14T11:30:35;60.90;;;35.78;;
58528;SDS011;44322;52.968;5.816;2023-02-14T11:33:04;58.22;;;34.63;;
58528;SDS011;44322;52.968;5.816;2023-02-14T11:35:30;58.33;;;34.00;;
58528;SDS011;44322;52.968;5.816;2023-02-14T11:38:00;60.53;;;35.63;;
58528;SDS011;44322;52.968;5.816;2023-02-14T11:40:29;58.88;;;36.83;;
58528;SDS011;44322;52.968;5.816;2023-02-14T11:45:43;60.63;;;37.17;;
58528;SDS011;44322;52.968;5.816;2023-02-14T11:48:18;51.85;;;33.40;;
58528;SDS011;44322;52.968;5.816;2023-02-14T11:56:11;58.10;;;33.90;;
58528;SDS011;44322;52.968;5.816;2023-02-14T11:58:39;58.85;;;34.47;;
58528;SDS011;44322;52.968;5.816;2023-02-14T12:01:10;54.63;;;35.28;;
58528;SDS011;44322;52.968;5.816;2023-02-14T12:03:38;54.95;;;32.88;;
58528;SDS011;44322;52.968;5.816;2023-02-14T12:06:09;52.75;;;32.63;;
58528;SDS011;44322;52.968;5.816;2023-02-14T12:08:36;48.95;;;31.27;;
58528;SDS011;44322;52.968;5.816;2023-02-14T12:11:04;49.80;;;30.02;;
58528;SDS011;44322;52.968;5.816;2023-02-14T12:13:39;50.28;;;30.13;;
58528;SDS011;44322;52.968;5.816;2023-02-14T12:16:08;47.65;;;30.63;;
58528;SDS011;44322;52.968;5.816;2023-02-14T12:18:47;46.38;;;28.85;;
58528;SDS011;44322;52.968;5.816;2023-02-14T12:21:24;49.58;;;30.38;;
58528;SDS011;44322;52.968;5.816;2023-02-14T12:34:29;47.63;;;28.65;;
58528;SDS011;44322;52.968;5.816;2023-02-14T12:37:06;47.85;;;30.27;;
58528;SDS011;44322;52.968;5.816;2023-02-14T12:53:38;46.03;;;28.50;;
58528;SDS011;44322;52.968;5.816;2023-02-14T12:59:20;47.38;;;30.27;;
58528;SDS011;44322;52.968;5.816;2023-02-14T13:13:37;50.53;;;31.70;;
58528;SDS011;44322;52.968;5.816;2023-02-14T13:16:14;48.53;;;30.65;;
58528;SDS011;44322;52.968;5.816;2023-02-14T13:19:11;50.20;;;32.15;;
58528;SDS011;44322;52.968;5.816;2023-02-14T13:22:00;55.45;;;35.17;;
58528;SDS011;44322;52.968;5.816;2023-02-14T13:24:30;54.70;;;32.90;;
58528;SDS011;44322;52.968;5.816;2023-02-14T13:27:01;55.08;;;34.15;;
58528;SDS011;44322;52.968;5.816;2023-02-14T13:32:24;59.63;;;35.15;;
58528;SDS011;44322;52.968;5.816;2023-02-14T13:34:52;60.20;;;37.47;;
58528;SDS011;44322;52.968;5.816;2023-02-14T13:37:20;56.20;;;36.10;;
58528;SDS011;44322;52.968;5.816;2023-02-14T13:56:00;59.13;;;36.10;;
58528;SDS011;44322;52.968;5.816;2023-02-14T13:58:28;54.15;;;33.92;;
58528;SDS011;44322;52.968;5.816;2023-02-14T14:00:54;60.90;;;36.50;;
58528;SDS011;44322;52.968;5.816;2023-02-14T14:19:01;55.10;;;34.88;;
58528;SDS011;44322;52.968;5.816;2023-02-14T14:22:05;49.25;;;32.22;;
58528;SDS011;44322;52.968;5.816;2023-02-14T14:24:38;50.58;;;32.25;;
58528;SDS011;44322;52.968;5.816;2023-02-14T14:27:12;50.35;;;32.20;;
58528;SDS011;44322;52.968;5.816;2023-02-14T14:29:52;49.22;;;31.33;;
58528;SDS011;44322;52.968;5.816;2023-02-14T14:37:34;49.67;;;32.33;;
58528;SDS011;44322;52.968;5.816;2023-02-14T14:40:06;51.30;;;33.95;;
58528;SDS011;44322;52.968;5.816;2023-02-14T14:42:40;50.25;;;32.55;;
58528;SDS011;44322;52.968;5.816;2023-02-14T14:49:38;51.95;;;32.38;;
58528;SDS011;44322;52.968;5.816;2023-02-14T14:52:04;51.45;;;33.00;;
58528;SDS011;44322;52.968;5.816;2023-02-14T14:54:31;55.25;;;34.00;;
58528;SDS011;44322;52.968;5.816;2023-02-14T14:56:59;51.78;;;33.88;;
58528;SDS011;44322;52.968;5.816;2023-02-14T14:59:31;51.05;;;32.15;;
58528;SDS011;44322;52.968;5.816;2023-02-14T15:02:18;52.78;;;33.38;;
58528;SDS011;44322;52.968;5.816;2023-02-14T15:04:46;55.80;;;35.10;;
58528;SDS011;44322;52.968;5.816;2023-02-14T15:07:18;49.22;;;31.67;;
58528;SDS011;44322;52.968;5.816;2023-02-14T15:10:19;51.50;;;33.00;;
58528;SDS011;44322;52.968;5.816;2023-02-14T15:12:52;52.17;;;33.33;;
58528;SDS011;44322;52.968;5.816;2023-02-14T15:15:41;51.75;;;32.83;;
58528;SDS011;44322;52.968;5.816;2023-02-14T15:18:10;51.60;;;32.35;;
58528;SDS011;44322;52.968;5.816;2023-02-14T15:20:37;51.45;;;33.60;;
58528;SDS011;44322;52.968;5.816;2023-02-14T15:23:05;52.45;;;33.53;;
58528;SDS011;44322;52.968;5.816;2023-02-14T15:25:34;53.17;;;32.67;;
58528;SDS011;44322;52.968;5.816;2023-02-14T15:28:01;54.13;;;33.08;;
58528;SDS011;44322;52.968;5.816;2023-02-14T15:30:31;49.22;;;31.80;;
58528;SDS011;44322;52.968;5.816;2023-02-14T15:33:02;51.60;;;33.35;;
58528;SDS011;44322;52.968;5.816;2023-02-14T15:35:30;57.83;;;34.22;;
58528;SDS011;44322;52.968;5.816;2023-02-14T15:37:57;54.92;;;33.72;;
58528;SDS011;44322;52.968;5.816;2023-02-14T15:40:26;57.13;;;34.75;;
58528;SDS011;44322;52.968;5.816;2023-02-14T15:47:54;51.33;;;34.40;;
58528;SDS011;44322;52.968;5.816;2023-02-14T15:50:24;55.88;;;34.90;;
58528;SDS011;44322;52.968;5.816;2023-02-14T15:53:07;55.15;;;34.88;;
58528;SDS011;44322;52.968;5.816;2023-02-14T15:55:45;57.83;;;34.00;;
58528;SDS011;44322;52.968;5.816;2023-02-14T15:58:16;54.00;;;34.65;;
58528;SDS011;44322;52.968;5.816;2023-02-14T16:00:44;55.20;;;35.45;;
58528;SDS011;44322;52.968;5.816;2023-02-14T16:03:11;54.88;;;34.33;;
58528;SDS011;44322;52.968;5.816;2023-02-14T16:05:47;47.05;;;32.00;;
58528;SDS011;44322;52.968;5.816;2023-02-14T16:11:01;50.42;;;33.25;;
58528;SDS011;44322;52.968;5.816;2023-02-14T16:13:29;56.80;;;35.65;;
58528;SDS011;44322;52.968;5.816;2023-02-14T16:18:36;56.33;;;35.30;;
58528;SDS011;44322;52.968;5.816;2023-02-14T16:23:39;54.20;;;33.60;;
58528;SDS011;44322;52.968;5.816;2023-02-14T16:26:05;57.28;;;35.45;;
58528;SDS011;44322;52.968;5.816;2023-02-14T16:28:31;55.40;;;34.13;;
58528;SDS011;44322;52.968;5.816;2023-02-14T16:30:58;53.15;;;34.10;;
58528;SDS011;44322;52.968;5.816;2023-02-14T16:33:26;55.47;;;34.75;;
58528;SDS011;44322;52.968;5.816;2023-02-14T16:36:02;56.80;;;35.17;;
58528;SDS011;44322;52.968;5.816;2023-02-14T16:38:34;49.28;;;31.15;;
58528;SDS011;44322;52.968;5.816;2023-02-14T16:41:05;55.20;;;32.72;;
58528;SDS011;44322;52.968;5.816;2023-02-14T16:45:59;58.78;;;35.83;;
58528;SDS011;44322;52.968;5.816;2023-02-14T16:48:25;55.50;;;33.13;;
58528;SDS011;44322;52.968;5.816;2023-02-14T16:50:50;56.90;;;33.38;;
58528;SDS011;44322;52.968;5.816;2023-02-14T16:53:23;54.95;;;33.92;;
58528;SDS011;44322;52.968;5.816;2023-02-14T16:55:51;55.53;;;32.95;;
58528;SDS011;44322;52.968;5.816;2023-02-14T16:58:17;54.83;;;33.85;;
58528;SDS011;44322;52.968;5.816;2023-02-14T17:00:44;58.55;;;34.72;;
58528;SDS011;44322;52.968;5.816;2023-02-14T17:03:09;53.92;;;33.72;;
58528;SDS011;44322;52.968;5.816;2023-02-14T17:05:36;61.85;;;35.35;;
58528;SDS011;44322;52.968;5.816;2023-02-14T17:08:02;54.33;;;34.30;;
58528;SDS011;44322;52.968;5.816;2023-02-14T17:10:29;58.85;;;35.33;;
58528;SDS011;44322;52.968;5.816;2023-02-14T17:12:56;55.70;;;34.95;;
58528;SDS011;44322;52.968;5.816;2023-02-14T17:15:23;52.50;;;32.03;;
58528;SDS011;44322;52.968;5.816;2023-02-14T17:17:50;51.10;;;33.33;;
58528;SDS011;44322;52.968;5.816;2023-02-14T17:20:20;58.55;;;34.95;;
58528;SDS011;44322;52.968;5.816;2023-02-14T17:22:46;57.17;;;34.58;;
58528;SDS011;44322;52.968;5.816;2023-02-14T17:25:12;55.80;;;34.95;;
58528;SDS011;44322;52.968;5.816;2023-02-14T17:27:38;54.47;;;34.40;;
58528;SDS011;44322;52.968;5.816;2023-02-14T17:30:13;57.00;;;34.72;;
58528;SDS011;44322;52.968;5.816;2023-02-14T17:32:40;53.95;;;33.78;;
58528;SDS011;44322;52.968;5.816;2023-02-14T17:35:06;55.90;;;34.20;;
58528;SDS011;44322;52.968;5.816;2023-02-14T17:37:33;54.60;;;31.98;;
58528;SDS011;44322;52.968;5.816;2023-02-14T17:40:00;53.55;;;33.80;;
58528;SDS011;44322;52.968;5.816;2023-02-14T17:42:25;53.63;;;33.05;;